createdAt,value
2022-11-29T00:01:46.972Z,58.97
2022-11-29T00:04:48.701Z,53.05
2022-11-29T00:07:50.336Z,57.27
2022-11-29T00:10:52.151Z,71.55
2022-11-29T00:13:53.789Z,70.25
2022-11-29T00:16:57.744Z,65.97
2022-11-29T00:19:59.408Z,59.80
2022-11-29T00:23:01.266Z,60.10
2022-11-29T00:26:07.014Z,70.40
2022-11-29T00:29:08.664Z,60.87
2022-11-29T00:32:10.477Z,65.88
2022-11-29T00:35:12.373Z,52.63
2022-11-29T00:38:14.036Z,67.70
2022-11-29T00:41:15.672Z,65.60
2022-11-29T00:44:20.350Z,60.33
2022-11-29T00:47:22.366Z,58.08
2022-11-29T00:50:24.021Z,55.90
2022-11-29T00:53:25.653Z,58.10
2022-11-29T00:56:27.357Z,69.22
2022-11-29T00:59:34.125Z,64.40
2022-11-29T01:02:35.746Z,63.92
2022-11-29T01:05:37.464Z,52.88
2022-11-29T01:08:39.236Z,56.07
2022-11-29T01:11:40.840Z,56.10
2022-11-29T01:14:46.582Z,46.92
2022-11-29T01:17:49.226Z,62.60
2022-11-29T01:21:05.824Z,56.80
2022-11-29T01:24:07.582Z,56.75
2022-11-29T01:27:10.047Z,69.78
2022-11-29T01:30:11.992Z,63.00
2022-11-29T01:33:13.619Z,58.40
2022-11-29T01:36:15.228Z,51.15
2022-11-29T01:39:16.924Z,46.57
2022-11-29T01:42:18.788Z,52.33
2022-11-29T01:45:28.177Z,57.97
2022-11-29T01:48:30.868Z,52.40
2022-11-29T01:51:32.754Z,54.60
2022-11-29T01:54:35.728Z,54.85
2022-11-29T01:57:37.498Z,55.35
2022-11-29T02:00:43.171Z,44.30
2022-11-29T02:03:44.848Z,50.78
2022-11-29T02:06:46.454Z,44.13
2022-11-29T02:09:48.117Z,48.93
2022-11-29T02:13:20.325Z,49.95
2022-11-29T02:16:30.827Z,64.45
2022-11-29T02:20:28.255Z,49.50
2022-11-29T02:23:51.465Z,50.13
2022-11-29T02:27:01.361Z,54.47
2022-11-29T02:30:06.395Z,50.25
2022-11-29T02:33:22.986Z,38.80
2022-11-29T02:36:33.492Z,46.33
2022-11-29T02:40:06.896Z,47.97
2022-11-29T02:43:20.568Z,64.77
2022-11-29T02:46:50.519Z,51.47
2022-11-29T02:50:13.980Z,43.15
2022-11-29T02:53:20.157Z,53.55
2022-11-29T02:56:47.892Z,49.03
2022-11-29T03:00:02.863Z,67.13
2022-11-29T03:03:13.456Z,52.47
2022-11-29T03:06:31.966Z,41.23
2022-11-29T03:09:40.347Z,49.22
2022-11-29T03:12:47.380Z,48.22
2022-11-29T03:16:06.594Z,50.33
2022-11-29T03:19:26.969Z,47.47
2022-11-29T03:22:48.208Z,44.03
2022-11-29T03:25:57.557Z,58.80
2022-11-29T03:29:11.847Z,51.90
2022-11-29T03:32:22.289Z,46.80
2022-11-29T03:35:35.415Z,47.38
2022-11-29T03:38:44.244Z,66.60
2022-11-29T03:42:00.184Z,47.40
2022-11-29T03:45:23.614Z,49.25
2022-11-29T03:48:48.973Z,50.63
2022-11-29T03:51:59.776Z,44.50
2022-11-29T03:55:20.043Z,49.53
2022-11-29T03:58:52.713Z,43.50
2022-11-29T04:02:35.642Z,52.58
2022-11-29T04:05:59.992Z,52.22
2022-11-29T04:09:13.046Z,43.90
2022-11-29T04:12:20.661Z,44.07
2022-11-29T04:15:57.103Z,52.00
2022-11-29T04:19:20.384Z,70.22
2022-11-29T04:22:30.771Z,52.07
2022-11-29T04:25:53.915Z,45.45
2022-11-29T04:29:07.099Z,62.40
2022-11-29T04:32:51.339Z,57.40
2022-11-29T04:36:01.920Z,39.40
2022-11-29T04:39:09.607Z,50.35
2022-11-29T04:42:30.940Z,40.28
2022-11-29T04:45:32.700Z,37.77
2022-11-29T04:49:00.659Z,35.10
2022-11-29T04:52:25.092Z,34.17
2022-11-29T04:55:44.983Z,30.47
2022-11-29T04:58:49.573Z,32.05
2022-11-29T05:01:59.111Z,35.15
2022-11-29T05:05:31.731Z,34.08
2022-11-29T05:08:48.428Z,30.90
2022-11-29T05:12:45.849Z,29.83
2022-11-29T05:16:00.747Z,32.75
2022-11-29T05:19:39.392Z,37.30
2022-11-29T05:23:10.842Z,36.95
2022-11-29T05:26:27.205Z,28.45
2022-11-29T05:29:51.844Z,30.27
2022-11-29T05:33:04.020Z,33.30
2022-11-29T05:36:14.832Z,33.05
2022-11-29T05:39:53.155Z,31.13
2022-11-29T05:43:16.937Z,29.05
2022-11-29T05:46:38.243Z,30.17
2022-11-29T05:50:19.881Z,33.20
2022-11-29T05:53:28.044Z,28.60
2022-11-29T05:56:42.490Z,31.15
2022-11-29T05:59:44.114Z,30.30
2022-11-29T06:03:12.351Z,31.57
2022-11-29T06:06:33.966Z,40.35
2022-11-29T06:09:50.336Z,32.70
2022-11-29T06:13:10.852Z,35.15
2022-11-29T06:16:28.273Z,28.10
2022-11-29T06:19:37.574Z,29.30
2022-11-29T06:22:45.311Z,39.67
2022-11-29T06:25:48.592Z,32.63
2022-11-29T06:28:54.356Z,30.33
2022-11-29T06:32:04.300Z,32.70
2022-11-29T06:35:29.417Z,35.07
2022-11-29T06:38:31.241Z,32.65
2022-11-29T06:41:33.034Z,33.80
2022-11-29T06:44:35.142Z,35.47
2022-11-29T06:47:39.513Z,29.92
2022-11-29T06:50:49.884Z,31.67
2022-11-29T06:54:04.552Z,30.58
2022-11-29T06:57:09.460Z,30.57
2022-11-29T07:00:40.521Z,34.08
2022-11-29T07:04:23.598Z,31.83
2022-11-29T07:07:25.627Z,31.53
2022-11-29T07:10:27.443Z,29.48
2022-11-29T07:13:29.300Z,33.08
2022-11-29T07:16:43.897Z,28.17
2022-11-29T07:19:56.860Z,28.65
2022-11-29T07:23:18.814Z,34.95
2022-11-29T07:26:22.806Z,29.10
2022-11-29T07:29:30.766Z,26.20
2022-11-29T07:33:00.655Z,26.30
2022-11-29T07:36:20.601Z,26.27
2022-11-29T07:39:50.005Z,29.67
2022-11-29T07:42:51.665Z,32.53
2022-11-29T07:45:54.048Z,30.50
2022-11-29T07:48:55.681Z,30.90
2022-11-29T07:51:57.470Z,41.60
2022-11-29T07:54:59.350Z,36.33
2022-11-29T07:58:00.948Z,34.80
2022-11-29T08:01:03.158Z,31.03
2022-11-29T08:04:04.933Z,39.30
2022-11-29T08:07:06.585Z,34.22
2022-11-29T08:10:10.993Z,32.00
2022-11-29T08:13:12.669Z,29.33
2022-11-29T08:16:18.138Z,29.38
2022-11-29T08:19:20.228Z,27.50
2022-11-29T08:22:21.992Z,28.85
2022-11-29T08:25:24.077Z,27.98
2022-11-29T08:28:25.724Z,32.28
2022-11-29T08:31:27.336Z,31.43
2022-11-29T08:34:29.053Z,30.58
2022-11-29T08:37:30.736Z,26.30
2022-11-29T08:40:32.424Z,27.30
2022-11-29T08:43:34.251Z,28.52
2022-11-29T08:46:54.704Z,30.48
2022-11-29T08:50:02.061Z,30.50
2022-11-29T08:53:22.722Z,31.55
2022-11-29T08:57:10.061Z,32.65
2022-11-29T08:59:46.208Z,47.35
2022-11-29T09:02:48.489Z,37.23
2022-11-29T09:05:50.110Z,36.80
2022-11-29T09:08:51.775Z,33.38
2022-11-29T09:11:53.498Z,31.67
2022-11-29T09:14:55.176Z,34.63
2022-11-29T09:17:57.056Z,34.35
2022-11-29T09:21:03.534Z,33.38
2022-11-29T09:24:06.647Z,26.70
2022-11-29T09:27:08.460Z,31.35
2022-11-29T09:30:10.802Z,30.25
2022-11-29T09:33:12.469Z,26.60
2022-11-29T09:36:14.187Z,32.70
2022-11-29T09:39:15.819Z,25.20
2022-11-29T09:42:39.548Z,31.13
2022-11-29T09:45:42.808Z,29.77
2022-11-29T09:49:06.673Z,31.25
2022-11-29T09:52:17.354Z,28.30
2022-11-29T09:55:38.181Z,30.92
2022-11-29T09:59:00.320Z,29.70
2022-11-29T10:02:21.832Z,31.02
2022-11-29T10:05:37.515Z,30.60
2022-11-29T10:08:43.708Z,34.38
2022-11-29T10:12:03.112Z,29.70
2022-11-29T10:15:20.247Z,32.70
2022-11-29T10:18:38.942Z,26.83
2022-11-29T10:21:42.130Z,31.15
2022-11-29T10:24:45.590Z,35.83
2022-11-29T10:27:47.514Z,29.53
2022-11-29T10:30:49.414Z,30.50
2022-11-29T10:33:51.186Z,31.30
2022-11-29T10:36:57.476Z,28.10
2022-11-29T10:40:04.688Z,34.95
2022-11-29T10:43:06.381Z,29.20
2022-11-29T10:46:14.764Z,24.98
2022-11-29T10:49:18.342Z,28.03
2022-11-29T10:52:21.050Z,29.15
2022-11-29T11:18:50.890Z,30.52
2022-11-29T12:45:30.393Z,34.88
2022-11-29T12:48:57.268Z,32.40
2022-11-29T12:52:26.493Z,38.67
2022-11-29T12:55:46.948Z,36.80
2022-11-29T12:59:02.787Z,34.35
2022-11-29T13:02:33.869Z,36.10
2022-11-29T13:05:35.519Z,34.97
2022-11-29T13:09:10.626Z,38.47
2022-11-29T13:12:16.763Z,39.20
2022-11-29T13:15:38.282Z,42.78
2022-11-29T13:19:03.280Z,39.10
2022-11-29T13:22:35.773Z,40.85
2022-11-29T13:25:39.035Z,46.42
2022-11-29T13:28:42.466Z,44.27
2022-11-29T13:31:45.044Z,42.55
2022-11-29T13:34:46.997Z,48.47
2022-11-29T13:37:55.191Z,42.83
2022-11-29T13:41:26.168Z,46.28
2022-11-29T13:44:46.023Z,46.30
2022-11-29T13:47:59.171Z,44.05
2022-11-29T13:51:21.075Z,46.25
2022-11-29T13:54:33.585Z,43.30
2022-11-29T13:58:15.685Z,47.45
2022-11-29T14:01:16.143Z,47.80
2022-11-29T14:04:37.682Z,42.05
2022-11-29T14:08:42.196Z,48.28
2022-11-29T14:12:37.158Z,44.83
2022-11-29T14:15:39.484Z,42.45
2022-11-29T14:19:09.195Z,42.30
2022-11-29T14:22:21.349Z,49.47
2022-11-29T14:25:53.119Z,53.43
2022-11-29T14:28:45.663Z,45.08
2022-11-29T14:31:48.895Z,49.97
2022-11-29T14:35:12.495Z,48.05
2022-11-29T14:38:20.517Z,47.30
2022-11-29T14:41:50.312Z,48.90
2022-11-29T14:44:56.511Z,46.65
2022-11-29T14:47:59.294Z,55.23
2022-11-29T14:51:20.929Z,50.58
2022-11-29T14:54:22.845Z,46.88
2022-11-29T14:57:52.257Z,46.30
2022-11-29T15:01:04.994Z,50.28
2022-11-29T15:04:10.581Z,53.22
2022-11-29T15:07:16.865Z,54.15
2022-11-29T15:10:26.236Z,42.72
2022-11-29T15:13:36.546Z,44.20
2022-11-29T15:16:54.552Z,47.80
2022-11-29T15:20:18.133Z,48.03
2022-11-29T15:23:19.871Z,49.13
2022-11-29T15:26:21.947Z,43.95
2022-11-29T15:29:23.653Z,47.47
2022-11-29T15:32:31.057Z,45.90
2022-11-29T15:35:36.327Z,46.60
2022-11-29T15:38:56.681Z,49.28
2022-11-29T15:42:10.115Z,47.80
2022-11-29T15:45:28.290Z,47.20
2022-11-29T15:48:32.857Z,44.55
2022-11-29T15:51:35.764Z,46.30
2022-11-29T15:54:42.272Z,48.20
2022-11-29T15:57:46.766Z,50.72
2022-11-29T16:00:55.419Z,48.83
2022-11-29T16:03:57.302Z,51.47
2022-11-29T16:06:58.997Z,43.63
2022-11-29T16:10:05.837Z,48.80
2022-11-29T16:13:26.260Z,45.22
2022-11-29T16:16:31.868Z,56.67
2022-11-29T16:19:34.947Z,52.20
2022-11-29T16:22:37.950Z,53.53
2022-11-29T16:26:13.364Z,47.40
2022-11-29T16:29:39.894Z,52.20
2022-11-29T16:32:42.882Z,49.07
2022-11-29T16:35:44.527Z,49.13
2022-11-29T16:38:47.778Z,49.15
2022-11-29T16:42:05.487Z,51.70
2022-11-29T16:45:35.316Z,45.10
2022-11-29T16:48:43.545Z,53.28
2022-11-29T16:51:48.049Z,53.10
2022-11-29T16:54:50.648Z,54.77
2022-11-29T16:57:52.441Z,51.40
2022-11-29T17:00:54.193Z,47.38
2022-11-29T17:04:00.016Z,47.10
2022-11-29T17:07:01.756Z,49.47
2022-11-29T17:10:05.704Z,47.20
2022-11-29T17:13:13.414Z,51.20
2022-11-29T17:16:15.815Z,52.03
2022-11-29T17:19:18.343Z,52.05
2022-11-29T17:22:19.956Z,53.55
2022-11-29T17:25:21.555Z,53.50
2022-11-29T17:28:23.209Z,57.22
2022-11-29T17:31:24.928Z,46.92
2022-11-29T17:34:28.353Z,56.80
2022-11-29T17:37:30.517Z,57.22
2022-11-29T17:40:32.181Z,52.70
2022-11-29T17:43:34.948Z,58.40
2022-11-29T17:46:36.720Z,56.50
2022-11-29T17:49:38.354Z,57.13
2022-11-29T17:52:41.002Z,57.92
2022-11-29T17:55:42.768Z,61.13
2022-11-29T17:58:45.143Z,58.08
2022-11-29T18:01:49.623Z,58.78
2022-11-29T18:04:51.497Z,56.17
2022-11-29T18:07:59.152Z,53.30
2022-11-29T18:11:11.965Z,64.85
2022-11-29T18:14:15.516Z,59.20
2022-11-29T18:17:17.092Z,58.05
2022-11-29T18:20:18.724Z,53.80
2022-11-29T18:23:20.361Z,55.60
2022-11-29T18:26:23.531Z,52.50
2022-11-29T18:29:25.228Z,58.30
2022-11-29T18:32:27.573Z,59.90
2022-11-29T18:35:29.197Z,51.47
2022-11-29T18:38:31.847Z,58.40
2022-11-29T18:41:33.575Z,55.70
2022-11-29T18:44:35.220Z,58.55
2022-11-29T18:47:36.817Z,55.75
2022-11-29T18:50:38.489Z,55.20
2022-11-29T18:53:40.343Z,55.88
2022-11-29T18:56:42.198Z,62.53
2022-11-29T18:59:43.801Z,61.10
2022-11-29T19:02:46.072Z,60.50
2022-11-29T19:05:52.463Z,60.23
2022-11-29T19:08:54.734Z,64.97
2022-11-29T19:11:56.409Z,61.83
2022-11-29T19:14:58.044Z,65.97
2022-11-29T19:17:59.602Z,69.57
2022-11-29T19:21:08.481Z,60.28
2022-11-29T19:24:15.046Z,60.58
2022-11-29T19:27:16.837Z,67.83
2022-11-29T19:30:18.565Z,70.30
2022-11-29T19:33:20.164Z,66.55
2022-11-29T19:36:23.590Z,64.60
2022-11-29T19:39:25.301Z,60.78
2022-11-29T19:42:26.907Z,61.75
2022-11-29T19:45:28.558Z,61.53
2022-11-29T19:48:30.184Z,57.25
2022-11-29T19:51:31.931Z,57.40
2022-11-29T19:54:33.565Z,61.30
2022-11-29T19:57:35.266Z,54.57
2022-11-29T20:00:36.961Z,59.83
2022-11-29T20:03:38.789Z,55.28
2022-11-29T20:06:40.567Z,59.33
2022-11-29T20:09:45.832Z,62.45
2022-11-29T20:12:47.691Z,58.58
2022-11-29T20:15:49.465Z,61.55
2022-11-29T20:18:51.909Z,65.18
2022-11-29T20:21:53.677Z,62.38
2022-11-29T20:24:55.931Z,61.33
2022-11-29T20:27:57.587Z,60.47
2022-11-29T20:31:05.038Z,67.30
2022-11-29T20:34:06.973Z,66.35
2022-11-29T20:37:14.867Z,60.07
2022-11-29T20:40:19.590Z,60.53
2022-11-29T20:43:48.841Z,64.63
2022-11-29T20:46:50.723Z,63.10
2022-11-29T20:49:52.497Z,64.97
2022-11-29T20:53:18.984Z,62.13
2022-11-29T20:56:20.685Z,57.20
2022-11-29T20:59:22.317Z,61.90
2022-11-29T21:02:24.819Z,62.78
2022-11-29T21:05:33.440Z,56.58
2022-11-29T21:08:35.188Z,59.53
2022-11-29T21:11:37.062Z,63.45
2022-11-29T21:14:38.996Z,64.65
2022-11-29T21:17:41.191Z,58.90
2022-11-29T21:20:42.843Z,64.22
2022-11-29T21:24:02.818Z,61.33
2022-11-29T21:27:04.761Z,59.08
2022-11-29T21:30:07.125Z,64.73
2022-11-29T21:33:08.999Z,55.00
2022-11-29T21:36:10.665Z,66.50
2022-11-29T21:39:13.446Z,62.35
2022-11-29T21:42:15.149Z,60.83
2022-11-29T21:45:16.913Z,61.17
2022-11-29T21:48:37.707Z,61.10
2022-11-29T21:51:39.587Z,63.90
2022-11-29T21:54:41.369Z,59.25
2022-11-29T21:57:42.995Z,64.20
2022-11-29T22:00:45.321Z,53.35
2022-11-29T22:03:47.155Z,56.78
2022-11-29T22:06:48.797Z,60.97
2022-11-29T22:09:57.785Z,60.70
2022-11-29T22:12:59.582Z,62.03
2022-11-29T22:16:08.381Z,60.35
2022-11-29T22:19:12.358Z,61.55
2022-11-29T22:22:14.053Z,58.30
2022-11-29T22:25:15.823Z,60.75
2022-11-29T22:28:17.449Z,54.53
2022-11-29T22:31:19.144Z,64.57
2022-11-29T22:34:21.149Z,59.03
2022-11-29T22:37:22.744Z,58.72
2022-11-29T22:40:24.538Z,66.32
2022-11-29T22:43:26.093Z,61.87
2022-11-29T22:46:28.160Z,63.65
2022-11-29T22:49:30.081Z,61.05
2022-11-29T22:52:31.695Z,58.77
2022-11-29T22:55:33.295Z,56.40
2022-11-29T22:58:34.916Z,56.70
2022-11-29T23:01:37.855Z,58.63
2022-11-29T23:04:39.471Z,52.47
2022-11-29T23:07:41.102Z,55.97
2022-11-29T23:10:42.725Z,55.70
2022-11-29T23:13:44.502Z,58.07
2022-11-29T23:16:46.165Z,58.67
2022-11-29T23:19:47.799Z,55.03
2022-11-29T23:22:49.406Z,51.43
2022-11-29T23:25:51.059Z,48.50
2022-11-29T23:28:52.979Z,51.47
2022-11-29T23:31:54.651Z,50.17
2022-11-29T23:34:56.307Z,48.23
2022-11-29T23:37:57.891Z,48.70
2022-11-29T23:40:59.465Z,48.53
2022-11-29T23:44:02.498Z,45.67
2022-11-29T23:47:04.140Z,48.83
2022-11-29T23:50:06.374Z,45.65
2022-11-29T23:53:07.974Z,47.50
2022-11-29T23:56:14.328Z,47.08
2022-11-29T23:59:15.878Z,48.35
